createdAt,value
2022-12-10T00:01:43.867Z,100282.91
2022-12-10T00:04:13.103Z,100282.81
2022-12-10T00:06:42.390Z,100278.47
2022-12-10T00:09:15.447Z,100274.28
2022-12-10T00:11:43.505Z,100276.72
2022-12-10T00:14:13.997Z,100277.09
2022-12-10T00:16:41.982Z,100275.13
2022-12-10T00:19:09.474Z,100276.31
2022-12-10T00:21:37.764Z,100283.13
2022-12-10T00:24:06.152Z,100278.47
2022-12-10T00:26:37.909Z,100277.09
2022-12-10T00:29:08.603Z,100278.47
2022-12-10T00:31:38.507Z,100277.44
2022-12-10T00:34:10.243Z,100274.78
2022-12-10T00:36:49.040Z,100286.34
2022-12-10T00:39:21.415Z,100279.91
2022-12-10T00:41:48.922Z,100285.06
2022-12-10T00:44:16.883Z,100284.41
2022-12-10T00:46:44.184Z,100288.44
2022-12-10T00:49:12.362Z,100278.13
2022-12-10T00:51:39.812Z,100285.06
2022-12-10T00:54:08.307Z,100285.81
2022-12-10T00:56:35.614Z,100292.59
2022-12-10T00:59:03.883Z,100296.03
2022-12-10T01:01:42.279Z,100292.44
2022-12-10T01:04:19.453Z,100294.97
2022-12-10T01:06:55.082Z,100293.94
2022-12-10T01:09:26.598Z,100297.31
2022-12-10T01:11:56.457Z,100291.59
2022-12-10T01:14:32.105Z,100290.84
2022-12-10T01:17:05.850Z,100301.56
2022-12-10T01:19:34.735Z,100302.16
2022-12-10T01:22:02.196Z,100301.09
2022-12-10T01:24:30.519Z,100302.97
2022-12-10T01:26:58.525Z,100300.84
2022-12-10T01:29:26.227Z,100306.13
2022-12-10T01:31:57.161Z,100308.22
2022-12-10T01:34:27.815Z,100297.56
2022-12-10T01:36:55.594Z,100301.50
2022-12-10T01:39:24.073Z,100297.13
2022-12-10T01:41:58.761Z,100297.56
2022-12-10T01:44:25.612Z,100298.94
2022-12-10T01:47:00.072Z,100294.47
2022-12-10T01:49:40.854Z,100291.19
2022-12-10T01:52:12.035Z,100296.22
2022-12-10T01:54:46.126Z,100289.34
2022-12-10T01:57:21.550Z,100292.88
2022-12-10T01:59:55.309Z,100305.75
2022-12-10T02:02:59.827Z,100294.28
2022-12-10T02:05:52.421Z,100292.06
2022-12-10T02:08:45.287Z,100292.59
2022-12-10T02:11:29.208Z,100280.78
2022-12-10T02:15:04.037Z,100282.72
2022-12-10T02:17:40.232Z,100281.03
2022-12-10T02:20:20.402Z,100279.38
2022-12-10T02:23:03.067Z,100272.97
2022-12-10T02:25:55.295Z,100276.72
2022-12-10T02:29:25.655Z,100271.28
2022-12-10T02:32:15.594Z,100277.25
2022-12-10T02:34:55.417Z,100277.63
2022-12-10T02:37:35.716Z,100285.22
2022-12-10T02:40:16.571Z,100281.41
2022-12-10T02:42:47.659Z,100281.31
2022-12-10T02:45:15.093Z,100279.69
2022-12-10T02:47:42.715Z,100282.84
2022-12-10T02:50:13.762Z,100285.38
2022-12-10T02:52:40.695Z,100281.16
2022-12-10T02:55:12.765Z,100278.94
2022-12-10T02:58:30.139Z,100285.19
2022-12-10T03:01:28.593Z,100285.19
2022-12-10T03:04:10.967Z,100280.53
2022-12-10T03:06:58.842Z,100291.13
2022-12-10T03:09:56.207Z,100280.06
2022-12-10T03:12:59.915Z,100291.88
2022-12-10T03:15:31.116Z,100283.31
2022-12-10T03:18:00.460Z,100286.34
2022-12-10T03:20:27.890Z,100286.69
2022-12-10T03:22:55.858Z,100285.97
2022-12-10T03:25:29.401Z,100288.19
2022-12-10T03:27:59.690Z,100286.97
2022-12-10T03:30:27.342Z,100282.56
2022-12-10T03:32:54.805Z,100280.75
2022-12-10T03:35:24.976Z,100283.53
2022-12-10T03:37:52.421Z,100286.97
2022-12-10T03:40:25.453Z,100291.00
2022-12-10T03:42:52.710Z,100282.06
2022-12-10T03:45:19.969Z,100286.75
2022-12-10T03:47:47.156Z,100291.63
2022-12-10T03:50:14.235Z,100285.97
2022-12-10T03:52:41.206Z,100284.28
2022-12-10T03:55:10.148Z,100281.53
2022-12-10T03:57:37.220Z,100282.31
2022-12-10T04:00:07.484Z,100281.91
2022-12-10T04:02:34.741Z,100280.59
2022-12-10T04:05:01.896Z,100279.63
2022-12-10T04:07:28.914Z,100286.50
2022-12-10T04:09:55.927Z,100284.63
2022-12-10T04:12:22.920Z,100295.47
2022-12-10T04:15:08.590Z,100293.53
2022-12-10T04:17:35.750Z,100291.34
2022-12-10T04:20:03.005Z,100289.28
2022-12-10T04:22:48.829Z,100284.38
2022-12-10T04:25:34.147Z,100294.41
2022-12-10T04:28:01.081Z,100286.69
2022-12-10T04:30:28.048Z,100289.34
2022-12-10T04:32:55.026Z,100284.00
2022-12-10T04:35:22.003Z,100283.41
2022-12-10T04:37:49.002Z,100290.97
2022-12-10T04:40:16.052Z,100280.00
2022-12-10T04:42:43.079Z,100284.66
2022-12-10T04:45:10.847Z,100282.69
2022-12-10T04:47:37.858Z,100282.78
2022-12-10T04:50:05.744Z,100295.63
2022-12-10T04:52:32.745Z,100284.47
2022-12-10T04:55:00.030Z,100288.69
2022-12-10T04:57:27.012Z,100291.44
2022-12-10T04:59:54.028Z,100287.16
2022-12-10T05:02:21.078Z,100286.22
2022-12-10T05:04:50.496Z,100287.91
2022-12-10T05:07:17.560Z,100289.19
2022-12-10T05:09:44.590Z,100291.06
2022-12-10T05:12:11.565Z,100293.88
2022-12-10T05:14:38.722Z,100293.88
2022-12-10T05:17:05.829Z,100298.31
2022-12-10T05:19:32.849Z,100313.22
2022-12-10T05:22:18.428Z,100305.06
2022-12-10T05:24:45.404Z,100299.31
2022-12-10T05:27:12.409Z,100299.94
2022-12-10T05:29:39.377Z,100296.47
2022-12-10T05:32:06.835Z,100295.16
2022-12-10T05:34:33.920Z,100309.41
2022-12-10T05:37:00.929Z,100303.66
2022-12-10T05:39:27.932Z,100301.72
2022-12-10T05:41:54.927Z,100303.44
2022-12-10T05:44:22.053Z,100297.78
2022-12-10T05:46:49.491Z,100301.97
2022-12-10T05:49:16.509Z,100307.72
2022-12-10T05:51:43.470Z,100309.66
2022-12-10T05:54:11.060Z,100314.06
2022-12-10T05:56:38.735Z,100312.69
2022-12-10T05:59:08.855Z,100320.00
2022-12-10T06:01:40.006Z,100321.84
2022-12-10T06:04:07.378Z,100314.81
2022-12-10T06:06:38.714Z,100314.75
2022-12-10T06:09:10.510Z,100314.19
2022-12-10T06:11:37.500Z,100312.38
2022-12-10T06:14:04.598Z,100317.72
2022-12-10T06:16:31.733Z,100318.09
2022-12-10T06:18:59.414Z,100311.13
2022-12-10T06:21:26.843Z,100306.34
2022-12-10T06:23:54.237Z,100306.25
2022-12-10T06:26:26.293Z,100313.59
2022-12-10T06:28:54.497Z,100322.38
2022-12-10T06:31:22.620Z,100320.59
2022-12-10T06:33:49.701Z,100318.34
2022-12-10T06:36:18.310Z,100322.38
2022-12-10T06:38:45.910Z,100330.56
2022-12-10T06:41:15.757Z,100332.94
2022-12-10T06:43:43.141Z,100344.41
2022-12-10T06:46:15.056Z,100334.94
2022-12-10T06:48:43.074Z,100340.44
2022-12-10T06:51:12.574Z,100333.44
2022-12-10T06:53:41.834Z,100337.44
2022-12-10T06:56:13.952Z,100342.66
2022-12-10T06:58:44.791Z,100352.69
2022-12-10T07:01:22.926Z,100347.06
2022-12-10T07:03:53.125Z,100345.56
2022-12-10T07:06:21.002Z,100349.75
2022-12-10T07:08:49.179Z,100351.41
2022-12-10T07:11:21.467Z,100353.06
2022-12-10T07:13:48.706Z,100353.00
2022-12-10T07:16:23.267Z,100349.66
2022-12-10T07:18:52.776Z,100349.28
2022-12-10T07:21:23.901Z,100358.22
2022-12-10T07:23:54.772Z,100362.31
2022-12-10T07:26:23.175Z,100354.59
2022-12-10T07:28:53.641Z,100364.03
2022-12-10T07:31:23.018Z,100370.53
2022-12-10T07:33:52.660Z,100362.81
2022-12-10T07:36:23.361Z,100367.31
2022-12-10T07:38:54.310Z,100369.94
2022-12-10T07:41:23.334Z,100380.84
2022-12-10T07:43:54.012Z,100373.41
2022-12-10T07:46:29.379Z,100376.28
2022-12-10T07:48:56.521Z,100374.91
2022-12-10T07:51:24.189Z,100386.00
2022-12-10T07:53:55.700Z,100389.16
2022-12-10T07:56:25.298Z,100388.09
2022-12-10T07:58:53.468Z,100392.81
2022-12-10T08:01:27.542Z,100392.25
2022-12-10T08:03:59.800Z,100400.41
2022-12-10T08:06:30.043Z,100400.16
2022-12-10T08:08:59.743Z,100402.72
2022-12-10T08:11:27.945Z,100396.06
2022-12-10T08:13:57.528Z,100403.97
2022-12-10T08:16:30.252Z,100399.28
2022-12-10T08:19:00.586Z,100400.44
2022-12-10T08:21:33.544Z,100402.81
2022-12-10T08:24:03.775Z,100403.81
2022-12-10T08:26:34.213Z,100405.56
2022-12-10T08:29:02.047Z,100407.81
2022-12-10T08:31:35.717Z,100420.00
2022-12-10T08:34:05.867Z,100416.19
2022-12-10T08:36:32.934Z,100418.63
2022-12-10T08:39:00.558Z,100418.16
2022-12-10T08:44:13.661Z,100420.59
2022-12-10T08:46:41.269Z,100408.84
2022-12-10T08:49:08.499Z,100410.72
2022-12-10T08:51:36.368Z,100409.22
2022-12-10T08:54:06.449Z,100413.53
2022-12-10T08:56:33.752Z,100422.59
2022-12-10T08:59:01.017Z,100425.91
2022-12-10T09:01:29.380Z,100433.28
2022-12-10T09:03:56.475Z,100433.34
2022-12-10T09:06:25.316Z,100430.50
2022-12-10T09:08:53.227Z,100427.59
2022-12-10T09:11:30.891Z,100426.97
2022-12-10T09:13:59.163Z,100435.66
2022-12-10T09:16:36.808Z,100433.31
2022-12-10T09:19:05.254Z,100438.63
2022-12-10T09:21:32.875Z,100434.56
2022-12-10T09:24:00.487Z,100440.50
2022-12-10T09:26:27.987Z,100443.94
2022-12-10T09:28:55.664Z,100438.94
2022-12-10T09:31:22.853Z,100438.59
2022-12-10T09:33:53.276Z,100437.09
2022-12-10T09:36:22.219Z,100436.44
2022-12-10T09:38:50.985Z,100435.13
2022-12-10T09:42:22.442Z,100432.13
2022-12-10T09:45:07.398Z,100427.94
2022-12-10T09:48:04.975Z,100428.94
2022-12-10T09:51:05.593Z,100424.63
2022-12-10T09:53:33.501Z,100427.00
2022-12-10T09:56:01.145Z,100429.91
2022-12-10T09:58:30.292Z,100429.06
2022-12-10T10:01:06.126Z,100426.66
2022-12-10T10:03:41.314Z,100430.75
2022-12-10T10:06:15.578Z,100424.34
2022-12-10T10:08:58.477Z,100431.56
2022-12-10T10:11:34.488Z,100425.84
2022-12-10T10:14:13.261Z,100425.03
2022-12-10T10:17:22.617Z,100430.75
2022-12-10T10:19:50.450Z,100431.44
2022-12-10T10:22:17.611Z,100429.88
2022-12-10T10:24:47.536Z,100431.56
2022-12-10T10:27:23.260Z,100435.41
2022-12-10T10:29:57.873Z,100439.94
2022-12-10T10:32:37.062Z,100432.53
2022-12-10T10:35:06.499Z,100428.16
2022-12-10T10:37:36.411Z,100432.13
2022-12-10T10:40:04.045Z,100428.59
2022-12-10T10:42:44.463Z,100431.56
2022-12-10T10:45:33.673Z,100428.69
2022-12-10T10:48:18.039Z,100425.41
2022-12-10T10:51:06.706Z,100419.53
2022-12-10T10:53:39.718Z,100410.41
2022-12-10T10:56:18.289Z,100415.41
2022-12-10T10:58:58.356Z,100412.59
2022-12-10T11:01:44.593Z,100414.75
2022-12-10T11:04:11.895Z,100407.88
2022-12-10T11:06:40.692Z,100407.59
2022-12-10T11:09:08.132Z,100402.44
2022-12-10T11:11:44.283Z,100407.47
2022-12-10T11:14:44.450Z,100406.38
2022-12-10T11:17:11.272Z,100404.31
2022-12-10T11:20:37.443Z,100408.72
2022-12-10T11:23:14.508Z,100407.22
2022-12-10T11:26:06.097Z,100399.94
2022-12-10T11:29:12.844Z,100399.63
2022-12-10T11:32:03.884Z,100400.03
2022-12-10T11:35:10.377Z,100402.69
2022-12-10T11:37:50.682Z,100402.31
2022-12-10T11:40:50.813Z,100400.72
2022-12-10T11:43:48.286Z,100395.78
2022-12-10T11:46:49.969Z,100398.16
2022-12-10T11:50:10.942Z,100395.41
2022-12-10T11:53:17.080Z,100396.13
2022-12-10T11:56:27.116Z,100395.69
2022-12-10T11:59:52.868Z,100394.25
2022-12-10T12:02:59.099Z,100397.00
2022-12-10T12:05:53.133Z,100395.09
2022-12-10T12:09:00.250Z,100399.13
2022-12-10T12:11:56.731Z,100405.94
2022-12-10T12:14:56.192Z,100401.53
2022-12-10T12:17:38.458Z,100405.16
2022-12-10T12:20:40.645Z,100408.31
2022-12-10T12:23:30.577Z,100407.66
2022-12-10T12:26:09.248Z,100410.09
2022-12-10T12:28:51.629Z,100409.88
2022-12-10T12:32:01.472Z,100412.34
2022-12-10T12:35:01.048Z,100409.31
2022-12-10T12:37:47.114Z,100415.63
2022-12-10T12:40:22.126Z,100412.50
2022-12-10T12:43:13.953Z,100415.94
2022-12-10T12:45:49.350Z,100415.63
2022-12-10T12:48:54.438Z,100413.25
2022-12-10T12:51:39.907Z,100416.66
2022-12-10T12:54:12.859Z,100404.22
2022-12-10T12:57:15.587Z,100411.22
2022-12-10T13:00:19.314Z,100412.59
2022-12-10T13:03:37.276Z,100414.75
2022-12-10T13:06:30.634Z,100411.47
2022-12-10T13:09:12.502Z,100413.44
2022-12-10T13:12:07.148Z,100418.28
2022-12-10T13:15:01.115Z,100416.66
2022-12-10T13:17:39.240Z,100416.06
2022-12-10T13:20:28.202Z,100423.75
2022-12-10T13:23:00.952Z,100431.69
2022-12-10T13:25:54.615Z,100422.25
2022-12-10T13:28:52.323Z,100430.53
2022-12-10T13:31:39.601Z,100435.53
2022-12-10T13:34:33.439Z,100437.03
2022-12-10T13:37:07.584Z,100442.16
2022-12-10T13:40:00.546Z,100451.16
2022-12-10T13:42:56.990Z,100455.53
2022-12-10T13:45:25.830Z,100450.59
2022-12-10T13:48:26.191Z,100448.84
2022-12-10T13:51:47.541Z,100448.13
2022-12-10T13:55:07.570Z,100453.06
2022-12-10T13:58:35.461Z,100440.50
2022-12-10T14:01:39.032Z,100454.25
2022-12-10T14:04:48.524Z,100457.22
2022-12-10T14:07:17.643Z,100453.84
2022-12-10T14:09:58.586Z,100456.22
2022-12-10T14:12:40.559Z,100457.50
2022-12-10T14:15:24.254Z,100454.00
2022-12-10T14:18:16.758Z,100461.75
2022-12-10T14:20:53.281Z,100452.91
2022-12-10T14:23:34.910Z,100450.69
2022-12-10T14:26:33.268Z,100453.06
2022-12-10T14:29:24.259Z,100455.81
2022-12-10T14:31:56.394Z,100453.00
2022-12-10T14:34:29.444Z,100450.88
2022-12-10T14:37:02.952Z,100446.16
2022-12-10T14:39:34.640Z,100455.91
2022-12-10T14:42:06.390Z,100455.53
2022-12-10T14:44:40.079Z,100459.56
2022-12-10T14:47:21.516Z,100462.41
2022-12-10T14:49:54.336Z,100459.47
2022-12-10T14:52:36.197Z,100465.00
2022-12-10T14:55:04.012Z,100464.22
2022-12-10T14:57:43.373Z,100466.31
2022-12-10T15:00:23.360Z,100468.25
2022-12-10T15:02:54.465Z,100469.94
2022-12-10T15:05:34.904Z,100471.97
2022-12-10T15:08:24.445Z,100470.22
2022-12-10T15:11:01.582Z,100470.75
2022-12-10T15:13:45.565Z,100473.72
2022-12-10T15:16:42.409Z,100480.19
2022-12-10T15:19:34.283Z,100478.84
2022-12-10T15:22:23.002Z,100470.31
2022-12-10T15:24:50.190Z,100477.16
2022-12-10T15:27:25.747Z,100480.63
2022-12-10T15:29:53.551Z,100471.75
2022-12-10T15:32:29.739Z,100468.91
2022-12-10T15:35:08.083Z,100471.97
2022-12-10T15:37:41.505Z,100475.69
2022-12-10T15:40:30.583Z,100481.72
2022-12-10T15:43:30.191Z,100486.31
2022-12-10T15:46:00.724Z,100477.34
2022-12-10T15:48:31.085Z,100486.22
2022-12-10T15:50:58.849Z,100483.25
2022-12-10T15:53:38.293Z,100481.59
2022-12-10T15:56:05.953Z,100487.16
2022-12-10T15:58:33.226Z,100479.78
2022-12-10T16:01:02.289Z,100487.00
2022-12-10T16:03:30.260Z,100477.09
2022-12-10T16:05:57.299Z,100478.19
2022-12-10T16:08:29.524Z,100480.72
2022-12-10T16:11:01.797Z,100482.41
2022-12-10T16:13:37.979Z,100480.00
2022-12-10T16:16:13.730Z,100482.97
2022-12-10T16:18:40.972Z,100478.91
2022-12-10T16:21:09.072Z,100487.00
2022-12-10T16:23:36.853Z,100482.97
2022-12-10T16:26:19.610Z,100493.41
2022-12-10T16:28:48.850Z,100486.03
2022-12-10T16:31:20.964Z,100487.63
2022-12-10T16:33:49.696Z,100489.91
2022-12-10T16:36:16.897Z,100493.53
2022-12-10T16:38:44.068Z,100489.97
2022-12-10T16:41:33.128Z,100484.56
2022-12-10T16:44:00.503Z,100491.16
2022-12-10T16:46:27.563Z,100489.28
2022-12-10T16:48:54.604Z,100489.41
2022-12-10T16:51:33.321Z,100491.97
2022-12-10T16:54:00.354Z,100495.88
2022-12-10T16:56:27.467Z,100494.91
2022-12-10T16:58:54.462Z,100501.22
2022-12-10T17:01:30.012Z,100501.44
2022-12-10T17:03:58.102Z,100501.16
2022-12-10T17:06:25.768Z,100503.59
2022-12-10T17:08:52.917Z,100506.16
2022-12-10T17:11:51.270Z,100506.31
2022-12-10T17:14:36.887Z,100506.88
2022-12-10T17:17:05.632Z,100500.88
2022-12-10T17:19:42.485Z,100492.94
2022-12-10T17:22:10.705Z,100499.91
2022-12-10T17:24:38.121Z,100508.31
2022-12-10T17:27:18.369Z,100497.72
2022-12-10T17:29:53.605Z,100505.19
2022-12-10T17:32:23.158Z,100504.88
2022-12-10T17:34:50.477Z,100501.19
2022-12-10T17:37:20.190Z,100503.00
2022-12-10T17:39:47.638Z,100505.38
2022-12-10T17:42:15.102Z,100510.59
2022-12-10T17:44:42.084Z,100506.06
2022-12-10T17:47:25.588Z,100506.66
2022-12-10T17:49:53.065Z,100507.88
2022-12-10T17:52:20.059Z,100507.44
2022-12-10T17:54:47.032Z,100512.31
2022-12-10T17:57:26.604Z,100510.50
2022-12-10T17:59:53.593Z,100511.59
2022-12-10T18:02:20.656Z,100508.88
2022-12-10T18:04:47.700Z,100501.28
2022-12-10T18:07:18.958Z,100505.63
2022-12-10T18:09:46.325Z,100509.84
2022-12-10T18:12:13.818Z,100515.56
2022-12-10T18:14:41.582Z,100514.31
2022-12-10T18:17:14.564Z,100518.56
2022-12-10T18:19:43.808Z,100510.28
2022-12-10T18:22:12.595Z,100509.44
2022-12-10T18:24:39.661Z,100518.22
2022-12-10T18:27:07.010Z,100515.19
2022-12-10T18:29:33.989Z,100517.22
2022-12-10T18:32:01.241Z,100516.03
2022-12-10T18:34:28.279Z,100515.94
2022-12-10T18:36:55.334Z,100522.00
2022-12-10T18:39:26.673Z,100522.44
2022-12-10T18:41:54.702Z,100528.34
2022-12-10T18:44:26.439Z,100533.34
2022-12-10T18:46:57.031Z,100527.25
2022-12-10T18:49:25.266Z,100524.78
2022-12-10T18:51:52.600Z,100518.28
2022-12-10T18:54:21.121Z,100522.41
2022-12-10T18:57:03.575Z,100520.19
2022-12-10T18:59:35.150Z,100531.53
2022-12-10T19:02:02.469Z,100531.34
2022-12-10T19:04:29.501Z,100525.94
2022-12-10T19:06:56.484Z,100525.81
2022-12-10T19:09:23.804Z,100529.22
2022-12-10T19:11:52.184Z,100531.44
2022-12-10T19:14:20.897Z,100523.38
2022-12-10T19:16:48.254Z,100525.13
2022-12-10T19:19:18.596Z,100528.38
2022-12-10T19:21:47.091Z,100527.09
2022-12-10T19:24:14.491Z,100528.69
2022-12-10T19:26:43.719Z,100536.44
2022-12-10T19:29:19.942Z,100529.84
2022-12-10T19:31:47.827Z,100532.28
2022-12-10T19:34:18.079Z,100534.28
2022-12-10T19:36:46.084Z,100535.34
2022-12-10T19:39:25.296Z,100537.91
2022-12-10T19:41:55.207Z,100534.91
2022-12-10T19:44:22.480Z,100534.28
2022-12-10T19:46:50.884Z,100534.06
2022-12-10T19:49:19.458Z,100538.00
2022-12-10T19:51:47.686Z,100545.84
2022-12-10T19:54:15.296Z,100543.03
2022-12-10T19:56:43.333Z,100545.41
2022-12-10T19:59:18.754Z,100541.78
2022-12-10T20:01:46.849Z,100541.09
2022-12-10T20:04:16.834Z,100540.22
2022-12-10T20:06:48.466Z,100540.44
2022-12-10T20:09:23.580Z,100539.78
2022-12-10T20:11:51.635Z,100532.94
2022-12-10T20:14:19.866Z,100537.03
2022-12-10T20:16:50.948Z,100546.16
2022-12-10T20:19:21.857Z,100552.75
2022-12-10T20:21:49.061Z,100544.41
2022-12-10T20:24:16.327Z,100544.72
2022-12-10T20:26:48.519Z,100543.41
2022-12-10T20:29:24.972Z,100541.47
2022-12-10T20:31:57.157Z,100535.34
2022-12-10T20:34:25.554Z,100537.69
2022-12-10T20:36:53.286Z,100540.75
2022-12-10T20:39:29.748Z,100532.78
2022-12-10T20:41:58.081Z,100541.84
2022-12-10T20:44:27.510Z,100544.91
2022-12-10T20:46:55.635Z,100541.22
2022-12-10T20:49:25.569Z,100538.69
2022-12-10T20:51:53.470Z,100550.53
2022-12-10T20:54:20.535Z,100540.00
2022-12-10T20:56:47.600Z,100541.56
2022-12-10T20:59:16.828Z,100536.00
2022-12-10T21:01:44.346Z,100538.56
2022-12-10T21:04:12.575Z,100536.06
2022-12-10T21:06:43.101Z,100526.28
2022-12-10T21:09:12.897Z,100528.78
2022-12-10T21:11:39.936Z,100526.72
2022-12-10T21:14:13.867Z,100530.22
2022-12-10T21:16:50.993Z,100529.78
2022-12-10T21:19:20.050Z,100534.06
2022-12-10T21:21:47.073Z,100532.69
2022-12-10T21:24:14.042Z,100533.34
2022-12-10T21:26:41.028Z,100530.38
2022-12-10T21:29:08.924Z,100534.53
2022-12-10T21:31:36.265Z,100536.84
2022-12-10T21:34:03.584Z,100541.28
2022-12-10T21:36:34.609Z,100535.91
2022-12-10T21:39:02.949Z,100531.22
2022-12-10T21:41:48.867Z,100527.72
2022-12-10T21:44:16.750Z,100532.97
2022-12-10T21:46:43.858Z,100533.06
2022-12-10T21:49:11.609Z,100529.75
2022-12-10T21:51:40.466Z,100521.25
2022-12-10T21:54:09.264Z,100521.38
2022-12-10T21:56:37.110Z,100514.69
2022-12-10T21:59:04.763Z,100514.94
2022-12-10T22:01:32.240Z,100514.69
2022-12-10T22:03:59.300Z,100519.78
2022-12-10T22:06:28.812Z,100514.22
2022-12-10T22:08:56.570Z,100510.66
2022-12-10T22:11:23.552Z,100517.50
2022-12-10T22:13:56.199Z,100515.59
2022-12-10T22:16:23.617Z,100507.50
2022-12-10T22:18:50.926Z,100514.34
2022-12-10T22:21:23.389Z,100514.94
2022-12-10T22:23:55.360Z,100509.91
2022-12-10T22:26:23.054Z,100506.09
2022-12-10T22:28:50.604Z,100506.81
2022-12-10T22:31:19.854Z,100504.34
2022-12-10T22:33:47.150Z,100506.94
2022-12-10T22:36:15.652Z,100513.41
2022-12-10T22:38:43.708Z,100521.25
2022-12-10T22:41:10.735Z,100513.28
2022-12-10T22:43:53.258Z,100510.31
2022-12-10T22:46:21.742Z,100507.50
2022-12-10T22:48:48.884Z,100507.13
2022-12-10T22:51:16.115Z,100498.66
2022-12-10T22:53:43.090Z,100497.59
2022-12-10T22:56:13.499Z,100499.16
2022-12-10T22:58:41.280Z,100503.91
2022-12-10T23:01:19.709Z,100503.44
2022-12-10T23:03:49.424Z,100493.34
2022-12-10T23:06:17.859Z,100495.84
2022-12-10T23:08:45.096Z,100489.75
2022-12-10T23:11:14.858Z,100492.09
2022-12-10T23:13:43.070Z,100489.81
2022-12-10T23:16:17.985Z,100484.22
2022-12-10T23:18:50.619Z,100490.06
2022-12-10T23:21:24.179Z,100493.69
2022-12-10T23:23:51.887Z,100485.03
2022-12-10T23:26:20.303Z,100493.31
2022-12-10T23:28:48.402Z,100482.59
2022-12-10T23:31:16.950Z,100482.13
2022-12-10T23:33:44.204Z,100479.66
2022-12-10T23:36:12.008Z,100487.09
2022-12-10T23:38:39.660Z,100481.22
2022-12-10T23:41:12.024Z,100489.66
2022-12-10T23:43:39.774Z,100495.19
2022-12-10T23:46:08.597Z,100488.84
2022-12-10T23:48:36.232Z,100484.38
2022-12-10T23:51:03.783Z,100496.78
2022-12-10T23:53:31.662Z,100489.38
2022-12-10T23:55:59.139Z,100490.66
2022-12-10T23:58:26.411Z,100489.78
